createdAt,value
2017-10-16T19:28:43.825Z,9.90
2017-10-16T19:31:13.119Z,7.20
2017-10-16T19:33:40.762Z,10.13
2017-10-16T19:36:08.419Z,17.77
2017-10-16T19:38:37.124Z,39.07
2017-10-16T19:41:06.648Z,22.50
2017-10-16T19:43:35.050Z,27.07
2017-10-16T19:46:04.008Z,26.33
2017-10-16T19:48:31.574Z,22.07
2017-10-16T19:50:59.606Z,18.10
2017-10-16T20:13:38.412Z,9.80
2017-10-16T20:22:04.000Z,11.27
2017-10-16T20:33:27.996Z,10.40
2017-10-16T20:35:56.404Z,9.90
2017-10-16T20:38:24.821Z,9.80
2017-10-16T20:43:56.439Z,12.10
2017-10-16T20:46:25.355Z,10.07
2017-10-16T20:48:54.271Z,9.63
2017-10-16T20:51:21.868Z,9.10
2017-10-16T21:08:21.665Z,12.47
2017-10-16T21:10:49.304Z,13.80
2017-10-16T21:13:18.125Z,13.47
2017-10-16T21:15:45.685Z,14.53
2017-10-16T21:18:13.329Z,14.00
2017-10-16T21:20:42.066Z,13.30
2017-10-16T21:23:10.441Z,13.50
2017-10-16T21:25:38.060Z,13.90
2017-10-16T21:28:06.016Z,15.10
2017-10-16T21:30:34.004Z,14.10
2017-10-16T21:33:01.969Z,12.47
2017-10-16T21:35:29.598Z,13.60
2017-10-16T21:37:57.193Z,13.10
2017-10-16T21:40:26.118Z,13.67
2017-10-16T21:42:54.112Z,15.50
2017-10-16T21:45:22.081Z,15.80
2017-10-16T21:47:49.672Z,15.20
2017-10-16T21:50:17.233Z,15.40
2017-10-16T21:52:44.933Z,15.63
2017-10-16T21:55:12.492Z,16.47
2017-10-16T21:57:40.053Z,17.57
2017-10-16T22:00:07.652Z,16.00
2017-10-16T22:02:35.979Z,16.90
2017-10-16T22:05:04.364Z,16.00
2017-10-16T22:07:31.948Z,14.27
2017-10-16T22:10:00.871Z,13.23
2017-10-16T22:12:30.001Z,10.57
2017-10-16T22:14:57.564Z,11.10
2017-10-16T22:17:25.254Z,11.13
2017-10-16T22:19:52.813Z,12.60
2017-10-16T22:22:20.514Z,13.13
2017-10-16T22:24:49.438Z,12.50
2017-10-16T22:27:17.391Z,12.20
2017-10-16T22:29:45.408Z,11.90
2017-10-16T22:32:14.315Z,12.40
2017-10-16T22:34:41.912Z,12.73
2017-10-16T22:37:10.820Z,12.57
2017-10-16T22:39:38.498Z,9.93
2017-10-16T22:42:07.395Z,10.17
2017-10-16T22:44:35.463Z,10.07
2017-10-16T22:47:03.531Z,11.50
2017-10-16T22:49:31.126Z,10.63
2017-10-16T22:51:58.789Z,11.20
2017-10-16T22:54:37.978Z,10.80
2017-10-16T22:57:06.048Z,9.40
2017-10-16T22:59:35.116Z,10.60
2017-10-16T23:02:03.524Z,10.30
2017-10-16T23:04:31.866Z,11.10
2017-10-16T23:06:59.455Z,11.60
2017-10-16T23:09:27.465Z,11.60
2017-10-16T23:11:56.585Z,10.70
2017-10-16T23:14:25.538Z,10.80
2017-10-16T23:16:53.104Z,11.60
2017-10-16T23:19:20.664Z,11.60
2017-10-16T23:21:49.432Z,11.37
2017-10-16T23:24:17.004Z,10.77
2017-10-16T23:26:45.384Z,12.70
2017-10-16T23:29:12.944Z,14.17
2017-10-16T23:31:41.693Z,13.23
2017-10-16T23:34:09.329Z,12.20
2017-10-16T23:36:36.916Z,11.50
2017-10-16T23:39:04.527Z,11.70
2017-10-16T23:41:32.131Z,11.27
2017-10-16T23:44:00.509Z,11.60
2017-10-16T23:46:28.498Z,11.30
2017-10-16T23:48:57.471Z,10.70
2017-10-16T23:51:25.067Z,10.10
2017-10-16T23:53:54.969Z,11.20
2017-10-16T23:56:23.931Z,12.50
2017-10-16T23:58:51.508Z,13.73
